Time;durP1;ratioP1;P1;durP2;ratioP2;P2;SDS_P1;SDS_P2;PMS_P1;PMS_P2;Temp;Humidity;BMP_temperature;BMP_pressure;BME280_temperature;BME280_humidity;BME280_pressure;Samples;Min_cycle;Max_cycle;Signal;HPM_P1;HPM_P2
2024/01/12 00:01:19;;;;;;;23.52;13.07;;;;;;;;;;6299465;22;20130;-86
2024/01/12 00:03:45;;;;;;;24.83;13.18;;;;;;;;;;6270156;22;20678;-87
2024/01/12 00:06:11;;;;;;;24.73;14.50;;;;;;;;;;6298113;22;20018;-86
2024/01/12 00:08:38;;;;;;;27.92;13.15;;;;;;;;;;6297050;22;20113;-86
2024/01/12 00:11:07;;;;;;;28.63;13.88;;;;;;;;;;6322514;22;20072;-86
2024/01/12 00:13:34;;;;;;;29.73;14.85;;;;;;;;;;6270474;22;20037;-87
2024/01/12 00:16:06;;;;;;;26.90;13.63;;;;;;;;;;6274255;22;20512;-87
2024/01/12 00:18:33;;;;;;;32.08;15.88;;;;;;;;;;6269272;22;20018;-87
2024/01/12 00:20:59;;;;;;;29.63;13.90;;;;;;;;;;6296667;22;20107;-86
2024/01/12 00:23:27;;;;;;;30.77;15.85;;;;;;;;;;6271910;22;20015;-87
2024/01/12 00:25:58;;;;;;;30.98;15.55;;;;;;;;;;6267722;22;20014;-87
2024/01/12 00:28:27;;;;;;;34.65;15.55;;;;;;;;;;6271996;22;20072;-87
2024/01/12 00:30:53;;;;;;;32.28;16.40;;;;;;;;;;6293534;22;20323;-87
2024/01/12 00:33:21;;;;;;;35.20;14.68;;;;;;;;;;6298106;22;20064;-87
2024/01/12 00:35:48;;;;;;;30.98;16.15;;;;;;;;;;6319854;22;20049;-87
2024/01/12 00:38:15;;;;;;;28.95;13.60;;;;;;;;;;6269849;22;20072;-86
2024/01/12 00:40:41;;;;;;;34.38;15.52;;;;;;;;;;6266625;22;20019;-86
2024/01/12 00:43:08;;;;;;;30.60;14.52;;;;;;;;;;6269939;22;20098;-86
2024/01/12 00:45:35;;;;;;;34.13;15.18;;;;;;;;;;6267473;22;20079;-87
2024/01/12 00:48:03;;;;;;;31.67;14.68;;;;;;;;;;6296145;22;20639;-87
2024/01/12 00:50:30;;;;;;;31.38;15.43;;;;;;;;;;6269074;22;20071;-87
2024/01/12 00:52:57;;;;;;;31.65;14.32;;;;;;;;;;6296229;22;20014;-87
2024/01/12 00:55:25;;;;;;;34.95;15.55;;;;;;;;;;6271531;22;20122;-87
2024/01/12 00:57:52;;;;;;;32.88;14.32;;;;;;;;;;6297509;22;20021;-87
2024/01/12 01:00:20;;;;;;;32.30;13.57;;;;;;;;;;6309779;22;20165;-87
2024/01/12 01:02:47;;;;;;;31.90;15.60;;;;;;;;;;6307509;22;20022;-87
2024/01/12 01:05:14;;;;;;;30.70;14.38;;;;;;;;;;6300375;22;20429;-87
2024/01/12 01:07:41;;;;;;;31.25;15.15;;;;;;;;;;6293896;22;20782;-86
2024/01/12 01:10:08;;;;;;;33.13;14.68;;;;;;;;;;6270938;22;20697;-87
2024/01/12 01:12:36;;;;;;;33.70;14.40;;;;;;;;;;6268273;22;20749;-87
2024/01/12 01:15:04;;;;;;;27.17;13.73;;;;;;;;;;6270237;22;20038;-87
2024/01/12 01:17:30;;;;;;;27.20;12.65;;;;;;;;;;6295088;22;20015;-87
2024/01/12 01:19:56;;;;;;;28.23;13.82;;;;;;;;;;6270146;22;20014;-87
2024/01/12 01:22:22;;;;;;;28.15;13.95;;;;;;;;;;6295751;22;20025;-87
2024/01/12 01:24:48;;;;;;;30.38;14.25;;;;;;;;;;6268228;22;20237;-87
2024/01/12 01:27:16;;;;;;;25.88;13.45;;;;;;;;;;6295986;22;20076;-87
2024/01/12 01:29:43;;;;;;;25.52;13.25;;;;;;;;;;6270199;22;20030;-87
2024/01/12 01:32:11;;;;;;;31.75;13.65;;;;;;;;;;6271003;22;20194;-87
2024/01/12 01:34:37;;;;;;;30.05;12.57;;;;;;;;;;6268306;22;20025;-87
2024/01/12 01:37:04;;;;;;;23.38;12.40;;;;;;;;;;6296376;22;20011;-87
2024/01/12 01:39:31;;;;;;;23.27;12.32;;;;;;;;;;6320228;22;20018;-87
2024/01/12 01:41:57;;;;;;;27.02;12.13;;;;;;;;;;6270273;22;20155;-87
2024/01/12 01:44:25;;;;;;;26.95;11.90;;;;;;;;;;6295795;22;20154;-87
2024/01/12 01:46:53;;;;;;;22.55;11.45;;;;;;;;;;6292434;22;20079;-87
2024/01/12 01:49:22;;;;;;;26.05;11.45;;;;;;;;;;6293899;22;20011;-88
2024/01/12 01:51:50;;;;;;;27.00;11.00;;;;;;;;;;6293216;22;20098;-87
2024/01/12 01:54:19;;;;;;;26.48;11.38;;;;;;;;;;6298196;22;20021;-87
2024/01/12 01:56:46;;;;;;;21.58;11.30;;;;;;;;;;6294955;22;20018;-87
2024/01/12 01:59:14;;;;;;;27.27;10.63;;;;;;;;;;6297512;22;20627;-87
2024/01/12 02:01:42;;;;;;;26.98;10.93;;;;;;;;;;6269056;22;20010;-86
2024/01/12 02:04:09;;;;;;;;;;;;;;;;;;6299620;22;20097;-87
2024/01/12 02:06:35;;;;;;;25.50;8.88;;;;;;;;;;6321391;22;19918;-87
2024/01/12 02:09:04;;;;;;;20.42;9.63;;;;;;;;;;6273144;22;20023;-87
2024/01/12 02:11:30;;;;;;;17.05;9.43;;;;;;;;;;6270313;22;20334;-87
2024/01/12 02:13:56;;;;;;;21.75;10.25;;;;;;;;;;6297467;22;20030;-88
2024/01/12 02:16:22;;;;;;;26.15;10.63;;;;;;;;;;6275037;22;20089;-87
2024/01/12 02:18:50;;;;;;;21.73;9.77;;;;;;;;;;6270790;22;20022;-87
2024/01/12 02:21:16;;;;;;;22.67;9.48;;;;;;;;;;6273162;22;20046;-87
2024/01/12 02:23:42;;;;;;;24.77;11.50;;;;;;;;;;6294278;22;20028;-87
2024/01/12 02:26:08;;;;;;;21.25;8.80;;;;;;;;;;6297873;22;20343;-87
2024/01/12 02:28:35;;;;;;;18.92;9.30;;;;;;;;;;6270342;22;20048;-87
2024/01/12 02:31:03;;;;;;;22.02;9.20;;;;;;;;;;6298014;22;20019;-88
2024/01/12 02:33:30;;;;;;;23.08;10.07;;;;;;;;;;6297394;22;20537;-88
2024/01/12 02:35:56;;;;;;;18.02;8.75;;;;;;;;;;6296743;22;20014;-87
2024/01/12 02:38:22;;;;;;;20.23;8.63;;;;;;;;;;6272922;22;20018;-87
2024/01/12 02:40:49;;;;;;;15.95;8.82;;;;;;;;;;6269797;22;20022;-87
2024/01/12 02:43:16;;;;;;;22.83;8.75;;;;;;;;;;6272694;22;20027;-87
2024/01/12 02:45:44;;;;;;;20.10;8.50;;;;;;;;;;6269799;22;20046;-87
2024/01/12 02:48:11;;;;;;;20.27;8.93;;;;;;;;;;6297417;22;20046;-87
2024/01/12 02:50:37;;;;;;;18.75;7.82;;;;;;;;;;6269847;22;20492;-88
2024/01/12 02:53:03;;;;;;;16.55;7.88;;;;;;;;;;6296190;22;20019;-88
2024/01/12 02:55:30;;;;;;;17.10;8.27;;;;;;;;;;6272586;22;20335;-87
2024/01/12 02:57:56;;;;;;;13.10;7.05;;;;;;;;;;6296973;22;20109;-88
2024/01/12 03:00:22;;;;;;;22.10;8.10;;;;;;;;;;6271813;22;20038;-87
2024/01/12 03:02:50;;;;;;;19.30;7.57;;;;;;;;;;6294994;22;20060;-87
2024/01/12 03:05:18;;;;;;;17.45;7.85;;;;;;;;;;6269882;22;20015;-87
2024/01/12 03:07:45;;;;;;;15.68;6.65;;;;;;;;;;6293944;22;20048;-87
2024/01/12 03:10:12;;;;;;;14.55;7.30;;;;;;;;;;6295594;22;20107;-88
2024/01/12 03:12:40;;;;;;;15.18;6.70;;;;;;;;;;6269825;22;20488;-87
2024/01/12 03:15:07;;;;;;;20.23;7.10;;;;;;;;;;6272062;22;20010;-87
2024/01/12 03:17:35;;;;;;;13.27;6.45;;;;;;;;;;6295016;22;20022;-87
2024/01/12 03:20:02;;;;;;;10.52;6.75;;;;;;;;;;6270754;22;20015;-87
2024/01/12 03:22:29;;;;;;;12.50;6.80;;;;;;;;;;6297236;22;20060;-87
2024/01/12 03:24:55;;;;;;;16.08;7.57;;;;;;;;;;6271903;22;20014;-87
2024/01/12 03:27:21;;;;;;;16.63;7.18;;;;;;;;;;6321834;22;20630;-87
2024/01/12 03:29:49;;;;;;;11.52;6.75;;;;;;;;;;6269196;22;20014;-87
2024/01/12 03:32:16;;;;;;;13.98;6.75;;;;;;;;;;6297250;22;20019;-88
2024/01/12 03:34:42;;;;;;;16.08;6.30;;;;;;;;;;6269323;22;20447;-88
2024/01/12 03:37:09;;;;;;;13.23;6.28;;;;;;;;;;6271610;22;20068;-87
2024/01/12 03:39:35;;;;;;;15.52;6.85;;;;;;;;;;6268798;22;20339;-88
2024/01/12 03:42:01;;;;;;;14.65;7.65;;;;;;;;;;6269499;22;20019;-88
2024/01/12 03:44:27;;;;;;;15.32;7.03;;;;;;;;;;6322579;22;20018;-87
2024/01/12 03:47:03;;;;;;;14.07;6.72;;;;;;;;;;6299219;22;20017;-87
2024/01/12 03:49:33;;;;;;;10.00;6.30;;;;;;;;;;6272010;22;20135;-88
2024/01/12 03:52:00;;;;;;;10.10;6.28;;;;;;;;;;6296857;22;20050;-87
2024/01/12 03:54:26;;;;;;;11.35;6.30;;;;;;;;;;6272891;22;20565;-87
2024/01/12 03:56:53;;;;;;;10.27;6.35;;;;;;;;;;6268133;22;20062;-87
2024/01/12 03:59:20;;;;;;;15.55;7.32;;;;;;;;;;6271548;22;20098;-87
2024/01/12 04:01:47;;;;;;;13.97;6.80;;;;;;;;;;6268961;22;20511;-87
2024/01/12 04:04:15;;;;;;;11.23;6.30;;;;;;;;;;6298056;22;20430;-87
2024/01/12 04:06:42;;;;;;;11.40;6.80;;;;;;;;;;6268814;22;20019;-87
2024/01/12 04:09:13;;;;;;;15.77;7.30;;;;;;;;;;6271861;22;20029;-87
2024/01/12 04:11:39;;;;;;;14.38;7.10;;;;;;;;;;6271118;22;20605;-87
2024/01/12 04:14:06;;;;;;;14.63;6.70;;;;;;;;;;6299627;22;20348;-88
2024/01/12 04:16:34;;;;;;;10.25;6.15;;;;;;;;;;6269547;22;20090;-87
2024/01/12 04:19:00;;;;;;;10.17;5.63;;;;;;;;;;6272252;22;20019;-87
2024/01/12 04:21:26;;;;;;;13.40;6.35;;;;;;;;;;6273803;22;20448;-87
2024/01/12 04:23:52;;;;;;;11.43;6.18;;;;;;;;;;6295838;22;20472;-87
2024/01/12 04:26:20;;;;;;;9.25;5.78;;;;;;;;;;6271496;22;20026;-87
2024/01/12 04:28:47;;;;;;;13.30;5.93;;;;;;;;;;6294773;22;20046;-87
2024/01/12 04:31:14;;;;;;;10.63;5.75;;;;;;;;;;6270661;22;20015;-87
2024/01/12 04:33:41;;;;;;;14.52;6.32;;;;;;;;;;6268301;22;20026;-87
2024/01/12 04:36:07;;;;;;;9.70;5.40;;;;;;;;;;6271116;22;20019;-87
2024/01/12 04:38:34;;;;;;;9.85;6.30;;;;;;;;;;6293927;22;20022;-87
2024/01/12 04:41:01;;;;;;;12.25;5.65;;;;;;;;;;6271461;22;20010;-87
2024/01/12 04:43:30;;;;;;;10.65;5.55;;;;;;;;;;6297674;22;20022;-87
2024/01/12 04:45:56;;;;;;;10.85;5.82;;;;;;;;;;6271298;22;20431;-87
2024/01/12 04:48:22;;;;;;;10.90;6.13;;;;;;;;;;6269809;22;20018;-87
2024/01/12 04:50:49;;;;;;;11.32;5.60;;;;;;;;;;6293973;22;20018;-87
2024/01/12 04:53:16;;;;;;;11.68;5.93;;;;;;;;;;6270107;22;20025;-87
2024/01/12 04:55:43;;;;;;;12.57;5.75;;;;;;;;;;6268750;22;20015;-87
2024/01/12 04:58:10;;;;;;;14.05;6.75;;;;;;;;;;6271179;22;20054;-87
2024/01/12 05:00:36;;;;;;;9.48;6.20;;;;;;;;;;6268083;22;20091;-87
2024/01/12 05:03:02;;;;;;;11.70;6.68;;;;;;;;;;6322199;22;20018;-87
2024/01/12 05:05:30;;;;;;;11.70;5.60;;;;;;;;;;6322014;22;20508;-87
2024/01/12 05:07:58;;;;;;;10.77;6.47;;;;;;;;;;6296057;22;20113;-87
2024/01/12 05:10:24;;;;;;;9.27;5.50;;;;;;;;;;6323105;22;20019;-87
2024/01/12 05:12:50;;;;;;;14.77;6.50;;;;;;;;;;6269896;22;20119;-87
2024/01/12 05:15:17;;;;;;;13.63;6.38;;;;;;;;;;6273346;22;20108;-87
2024/01/12 05:17:46;;;;;;;11.07;7.03;;;;;;;;;;6293772;22;20025;-87
2024/01/12 05:20:13;;;;;;;;;;;;;;;;;;6272115;22;20041;-87
2024/01/12 05:22:40;;;;;;;13.27;5.32;;;;;;;;;;6294371;22;19914;-87
2024/01/12 05:25:06;;;;;;;15.88;5.80;;;;;;;;;;6296653;22;20046;-87
2024/01/12 05:27:34;;;;;;;11.45;5.63;;;;;;;;;;6294034;22;20473;-87
2024/01/12 05:30:00;;;;;;;14.55;6.40;;;;;;;;;;6271313;22;20053;-87
2024/01/12 05:32:26;;;;;;;14.43;5.82;;;;;;;;;;6269154;22;20015;-87
2024/01/12 05:34:52;;;;;;;13.38;5.75;;;;;;;;;;6267235;22;20034;-87
2024/01/12 05:37:19;;;;;;;14.68;5.20;;;;;;;;;;6296955;22;20055;-87
2024/01/12 05:39:46;;;;;;;14.73;5.45;;;;;;;;;;6268642;22;20406;-86
2024/01/12 05:42:14;;;;;;;12.93;6.40;;;;;;;;;;6298622;22;20021;-87
2024/01/12 05:44:40;;;;;;;14.02;6.18;;;;;;;;;;6295627;22;20557;-87
2024/01/12 05:47:07;;;;;;;10.25;5.93;;;;;;;;;;6272612;22;20019;-87
2024/01/12 05:49:36;;;;;;;13.32;5.90;;;;;;;;;;6271080;22;20007;-88
2024/01/12 05:52:04;;;;;;;12.88;5.50;;;;;;;;;;6296080;22;20096;-87
2024/01/12 05:54:31;;;;;;;12.95;5.45;;;;;;;;;;6268543;22;20417;-88
2024/01/12 05:56:57;;;;;;;15.80;5.63;;;;;;;;;;6320322;22;20019;-88
2024/01/12 05:59:23;;;;;;;15.00;5.70;;;;;;;;;;6322265;22;20011;-87
2024/01/12 06:01:50;;;;;;;17.23;5.82;;;;;;;;;;6294407;22;20057;-87
2024/01/12 06:04:18;;;;;;;12.82;6.28;;;;;;;;;;6270479;22;20015;-86
2024/01/12 06:06:44;;;;;;;21.63;5.63;;;;;;;;;;6292509;22;20455;-86
2024/01/12 06:09:11;;;;;;;10.18;5.07;;;;;;;;;;6269017;22;20347;-87
2024/01/12 06:11:37;;;;;;;19.50;6.10;;;;;;;;;;6292407;22;20022;-87
2024/01/12 06:14:04;;;;;;;12.93;5.80;;;;;;;;;;6270348;22;20018;-86
2024/01/12 06:16:31;;;;;;;11.80;5.53;;;;;;;;;;6269104;22;20015;-87
2024/01/12 06:18:57;;;;;;;15.75;5.90;;;;;;;;;;6298852;22;20399;-87
2024/01/12 06:21:23;;;;;;;10.68;5.03;;;;;;;;;;6271803;22;20022;-87
2024/01/12 06:23:51;;;;;;;18.35;6.03;;;;;;;;;;6270120;22;20175;-87
2024/01/12 06:26:17;;;;;;;16.23;5.88;;;;;;;;;;6298574;22;20044;-86
2024/01/12 06:28:44;;;;;;;22.77;7.13;;;;;;;;;;6296232;22;20106;-87
2024/01/12 06:31:10;;;;;;;17.42;6.80;;;;;;;;;;6299650;22;20048;-87
2024/01/12 06:33:36;;;;;;;22.35;6.93;;;;;;;;;;6269409;22;20110;-87
2024/01/12 06:36:04;;;;;;;32.65;7.40;;;;;;;;;;6270665;22;20180;-87
2024/01/12 06:38:31;;;;;;;22.17;6.33;;;;;;;;;;6267205;22;20019;-88
2024/01/12 06:40:57;;;;;;;24.67;6.35;;;;;;;;;;6270284;22;20050;-87
2024/01/12 06:43:23;;;;;;;24.88;7.03;;;;;;;;;;6297531;22;20099;-87
2024/01/12 06:45:50;;;;;;;22.48;6.43;;;;;;;;;;6270555;22;20022;-87
2024/01/12 06:48:17;;;;;;;16.98;6.82;;;;;;;;;;6269919;22;20014;-87
2024/01/12 06:50:43;;;;;;;23.70;7.03;;;;;;;;;;6295384;22;20019;-87
2024/01/12 06:53:10;;;;;;;32.67;7.15;;;;;;;;;;6272271;22;20054;-87
2024/01/12 06:55:38;;;;;;;27.70;6.97;;;;;;;;;;6269745;22;20014;-87
2024/01/12 06:58:04;;;;;;;24.15;7.22;;;;;;;;;;6272307;22;20361;-87
2024/01/12 07:00:31;;;;;;;21.95;7.28;;;;;;;;;;6295675;22;20010;-87
2024/01/12 07:02:58;;;;;;;18.45;6.57;;;;;;;;;;6272158;22;20095;-87
2024/01/12 07:05:25;;;;;;;27.48;7.38;;;;;;;;;;6270975;22;20108;-87
2024/01/12 07:07:51;;;;;;;29.30;7.50;;;;;;;;;;6267996;22;20380;-86
2024/01/12 07:10:17;;;;;;;21.42;5.88;;;;;;;;;;6270888;22;20098;-86
2024/01/12 07:12:52;;;;;;;20.20;6.57;;;;;;;;;;6267440;22;20056;-88
2024/01/12 07:15:21;;;;;;;20.52;6.22;;;;;;;;;;6270879;22;20018;-89
2024/01/12 07:17:54;;;;;;;26.15;6.38;;;;;;;;;;6294040;22;20019;-91
2024/01/12 07:20:21;;;;;;;30.70;7.22;;;;;;;;;;6270095;22;20140;-89
2024/01/12 07:22:48;;;;;;;30.65;6.78;;;;;;;;;;6270795;22;20042;-89
2024/01/12 07:25:17;;;;;;;38.10;6.85;;;;;;;;;;6270614;22;20150;-90
2024/01/12 07:27:44;;;;;;;;;;;;;;;;;;6295092;22;20050;-89
2024/01/12 07:30:12;;;;;;;30.10;7.53;;;;;;;;;;6297776;22;19914;-90
2024/01/12 07:32:39;;;;;;;24.80;7.32;;;;;;;;;;6321291;22;20276;-90
2024/01/12 07:35:07;;;;;;;17.00;5.72;;;;;;;;;;6298805;22;20014;-90
2024/01/12 07:37:34;;;;;;;13.23;6.15;;;;;;;;;;6296617;22;20015;-91
2024/01/12 07:40:00;;;;;;;17.88;5.72;;;;;;;;;;6298699;22;20576;-89
2024/01/12 07:42:26;;;;;;;16.30;6.38;;;;;;;;;;6273514;22;20014;-90
2024/01/12 07:44:54;;;;;;;20.42;6.35;;;;;;;;;;6269503;22;20023;-89
2024/01/12 07:47:39;;;;;;;25.10;6.90;;;;;;;;;;6324262;22;20050;-89
2024/01/12 07:50:12;;;;;;;21.33;7.03;;;;;;;;;;6276127;22;20023;-89
2024/01/12 07:52:46;;;;;;;16.58;7.00;;;;;;;;;;6297248;22;20011;-87
2024/01/12 07:55:44;;;;;;;25.63;7.63;;;;;;;;;;6272146;22;20080;-88
2024/01/12 07:58:18;;;;;;;16.88;6.90;;;;;;;;;;6309657;22;20015;-87
2024/01/12 08:00:52;;;;;;;15.57;6.35;;;;;;;;;;6295117;22;20022;-88
2024/01/12 08:03:20;;;;;;;16.17;6.45;;;;;;;;;;6295970;22;20094;-87
2024/01/12 08:05:47;;;;;;;20.47;7.07;;;;;;;;;;6294022;22;20021;-87
2024/01/12 08:08:16;;;;;;;18.67;6.97;;;;;;;;;;6272065;22;20023;-87
2024/01/12 08:10:43;;;;;;;15.23;7.07;;;;;;;;;;6267884;22;20022;-89
2024/01/12 08:13:20;;;;;;;20.90;7.13;;;;;;;;;;6270538;22;20046;-88
2024/01/12 08:15:48;;;;;;;10.93;7.03;;;;;;;;;;6271570;22;20014;-88
2024/01/12 08:18:28;;;;;;;19.27;6.63;;;;;;;;;;6272675;22;20022;-89
2024/01/12 08:20:58;;;;;;;15.27;6.40;;;;;;;;;;6273349;22;20020;-88
2024/01/12 08:23:27;;;;;;;21.73;7.35;;;;;;;;;;6269984;22;20041;-89
2024/01/12 08:26:01;;;;;;;22.95;6.78;;;;;;;;;;6269603;22;20367;-88
2024/01/12 08:28:30;;;;;;;17.83;7.65;;;;;;;;;;6321211;22;20067;-88
2024/01/12 08:31:03;;;;;;;20.58;7.82;;;;;;;;;;6297984;22;20015;-89
2024/01/12 08:33:34;;;;;;;18.08;7.82;;;;;;;;;;6269468;22;20111;-89
2024/01/12 08:38:51;;;;;;;17.58;6.30;;;;;;;;;;6299575;22;20044;-89
2024/01/12 08:41:18;;;;;;;29.10;7.90;;;;;;;;;;6320856;22;20014;-89
2024/01/12 08:43:44;;;;;;;13.68;6.68;;;;;;;;;;6268742;22;20023;-89
2024/01/12 08:46:12;;;;;;;18.38;6.15;;;;;;;;;;6296923;22;20018;-88
2024/01/12 08:48:40;;;;;;;14.05;6.32;;;;;;;;;;6269405;22;20023;-89
2024/01/12 08:51:06;;;;;;;;;;;;;;;;;;6270568;22;20019;-89
2024/01/12 08:53:34;;;;;;;12.55;6.28;;;;;;;;;;6319805;22;19918;-89
2024/01/12 08:56:01;;;;;;;21.00;7.28;;;;;;;;;;6320694;22;20638;-88
2024/01/12 08:58:29;;;;;;;16.42;7.55;;;;;;;;;;6267978;22;20019;-89
2024/01/12 09:00:55;;;;;;;18.00;8.77;;;;;;;;;;6322869;22;20041;-88
2024/01/12 09:03:22;;;;;;;19.85;8.93;;;;;;;;;;6293803;22;20019;-90
2024/01/12 09:05:51;;;;;;;18.73;8.68;;;;;;;;;;6292097;22;20022;-89
2024/01/12 09:08:19;;;;;;;17.45;8.05;;;;;;;;;;6320906;22;20045;-88
2024/01/12 09:10:52;;;;;;;21.02;8.60;;;;;;;;;;6293379;22;20362;-88
2024/01/12 09:13:23;;;;;;;20.38;8.18;;;;;;;;;;6272092;22;20022;-88
2024/01/12 09:15:54;;;;;;;16.05;7.10;;;;;;;;;;6270882;22;20331;-88
2024/01/12 09:18:20;;;;;;;19.48;7.43;;;;;;;;;;6272322;22;20011;-88
2024/01/12 09:20:52;;;;;;;20.17;6.97;;;;;;;;;;6268068;22;20010;-88
2024/01/12 09:23:24;;;;;;;19.48;7.75;;;;;;;;;;6272861;22;20025;-89
2024/01/12 09:25:54;;;;;;;24.13;7.40;;;;;;;;;;6269126;22;20022;-88
2024/01/12 09:28:23;;;;;;;13.90;6.85;;;;;;;;;;6305645;22;20014;-88
2024/01/12 09:30:54;;;;;;;14.23;6.93;;;;;;;;;;6300502;22;20393;-88
2024/01/12 09:33:23;;;;;;;19.42;6.80;;;;;;;;;;6297373;22;20079;-88
2024/01/12 09:35:50;;;;;;;;;;;;;;;;;;6294508;22;20019;-88
2024/01/12 09:38:20;;;;;;;23.48;7.07;;;;;;;;;;6299313;22;19910;-88
2024/01/12 09:40:48;;;;;;;14.95;6.43;;;;;;;;;;6270734;22;20014;-88
2024/01/12 09:43:19;;;;;;;20.55;6.20;;;;;;;;;;6296967;22;20316;-88
2024/01/12 09:45:53;;;;;;;17.83;6.07;;;;;;;;;;6269197;22;20064;-88
2024/01/12 09:48:26;;;;;;;18.08;6.40;;;;;;;;;;6270111;22;20448;-88
2024/01/12 09:50:59;;;;;;;22.35;6.22;;;;;;;;;;6269294;22;20029;-88
2024/01/12 09:53:35;;;;;;;18.08;5.40;;;;;;;;;;6301046;22;20463;-87
2024/01/12 09:56:04;;;;;;;15.55;6.35;;;;;;;;;;6273451;22;20019;-88
2024/01/12 09:58:31;;;;;;;16.80;5.85;;;;;;;;;;6268072;22;20015;-88
2024/01/12 10:00:59;;;;;;;16.60;5.45;;;;;;;;;;6271796;22;20042;-88
2024/01/12 10:03:28;;;;;;;19.05;5.68;;;;;;;;;;6271998;22;20019;-87
2024/01/12 10:05:58;;;;;;;11.48;5.13;;;;;;;;;;6271908;22;20025;-87
2024/01/12 10:08:34;;;;;;;14.18;5.35;;;;;;;;;;6295799;22;20099;-88
2024/01/12 10:11:03;;;;;;;10.30;5.07;;;;;;;;;;6296891;22;20455;-88
2024/01/12 10:13:29;;;;;;;;;;;;;;;;;;6271991;22;20019;-88
2024/01/12 10:16:02;;;;;;;18.20;5.20;;;;;;;;;;6299041;22;19920;-88
2024/01/12 10:18:30;;;;;;;9.82;4.55;;;;;;;;;;6273956;22;20017;-88
2024/01/12 10:20:57;;;;;;;17.23;4.15;;;;;;;;;;6274888;22;20439;-87
2024/01/12 10:23:31;;;;;;;13.07;4.10;;;;;;;;;;6276724;22;20126;-88
2024/01/12 10:26:03;;;;;;;11.18;3.88;;;;;;;;;;6299602;22;20018;-88
2024/01/12 10:28:34;;;;;;;13.27;4.80;;;;;;;;;;6297815;22;20014;-88
2024/01/12 10:31:04;;;;;;;10.43;4.03;;;;;;;;;;6298952;22;20025;-88
2024/01/12 10:33:32;;;;;;;16.98;3.72;;;;;;;;;;6272749;22;20774;-88
2024/01/12 10:36:11;;;;;;;8.48;3.88;;;;;;;;;;6299089;22;20513;-87
2024/01/12 10:38:38;;;;;;;18.02;4.85;;;;;;;;;;6296913;22;20015;-88
2024/01/12 10:41:08;;;;;;;21.55;3.95;;;;;;;;;;6272750;22;20111;-88
2024/01/12 10:43:40;;;;;;;13.40;3.67;;;;;;;;;;6297258;22;20357;-88
2024/01/12 10:46:13;;;;;;;12.52;3.50;;;;;;;;;;6275306;22;20388;-88
2024/01/12 10:48:45;;;;;;;14.75;3.13;;;;;;;;;;6273636;22;20053;-88
2024/01/12 10:51:19;;;;;;;14.05;3.25;;;;;;;;;;6300786;22;20022;-88
2024/01/12 10:53:58;;;;;;;7.00;3.60;;;;;;;;;;6326453;22;20038;-88
2024/01/12 10:56:35;;;;;;;9.48;2.97;;;;;;;;;;6299241;22;20312;-88
2024/01/12 10:59:10;;;;;;;14.40;2.97;;;;;;;;;;6300303;22;20807;-88
2024/01/12 11:01:39;;;;;;;8.90;4.00;;;;;;;;;;6275770;22;20539;-88
2024/01/12 11:04:14;;;;;;;15.05;3.40;;;;;;;;;;6302042;22;20030;-88
2024/01/12 11:06:45;;;;;;;17.15;3.03;;;;;;;;;;6274939;22;20324;-88
2024/01/12 11:09:20;;;;;;;17.10;3.80;;;;;;;;;;6302309;22;20023;-88
2024/01/12 11:14:44;;;;;;;6.30;2.55;;;;;;;;;;6303970;22;20072;-88
2024/01/12 11:17:12;;;;;;;13.55;3.13;;;;;;;;;;6275704;22;20342;-87
2024/01/12 11:19:40;;;;;;;11.93;2.20;;;;;;;;;;6300121;22;20498;-88
2024/01/12 11:22:09;;;;;;;17.45;2.40;;;;;;;;;;6303048;22;20081;-88
2024/01/12 11:24:51;;;;;;;12.02;2.95;;;;;;;;;;6295548;22;20019;-92
2024/01/12 11:55:30;;;;;;;10.35;2.60;;;;;;;;;;6174860;22;20017;-90
2024/01/12 11:58:37;;;;;;;7.28;2.17;;;;;;;;;;6298208;22;20018;-90
2024/01/12 12:05:39;;;;;;;10.90;3.17;;;;;;;;;;6243056;23;20027;-90
2024/01/12 12:12:07;;;;;;;12.38;2.95;;;;;;;;;;6129756;23;20020;-90
2024/01/12 12:15:04;;;;;;;16.23;2.55;;;;;;;;;;6225884;22;20427;-91
2024/01/12 12:28:40;;;;;;;14.90;2.80;;;;;;;;;;6168268;23;20029;-91
2024/01/12 12:31:47;;;;;;;;;;;;;;;;;;;;;
2024/01/12 12:49:09;;;;;;;;;;;;;;;;;;;;;
2024/01/12 13:09:50;;;;;;;;;;;;;;;;;;;;;
2024/01/12 13:21:36;;;;;;;13.40;2.80;;;;;;;;;;6318263;22;20018;-87
2024/01/12 13:24:02;;;;;;;14.27;2.75;;;;;;;;;;6247867;22;20014;-88
2024/01/12 13:26:32;;;;;;;10.95;2.58;;;;;;;;;;6272099;22;20021;-86
2024/01/12 13:29:00;;;;;;;13.88;2.88;;;;;;;;;;6245748;22;20075;-86
2024/01/12 13:31:27;;;;;;;;;;;;;;;;;;6271254;22;20014;-86
2024/01/12 13:33:53;;;;;;;7.05;2.45;;;;;;;;;;6295143;22;19923;-86
2024/01/12 13:36:19;;;;;;;7.95;2.60;;;;;;;;;;6245234;22;20058;-86
2024/01/12 13:38:51;;;;;;;13.70;2.30;;;;;;;;;;6294373;22;20031;-86
2024/01/12 13:41:17;;;;;;;16.45;2.80;;;;;;;;;;6247688;22;20019;-86
2024/01/12 13:43:43;;;;;;;13.30;3.10;;;;;;;;;;6269603;22;20054;-86
2024/01/12 13:46:09;;;;;;;14.75;2.97;;;;;;;;;;6273042;22;20389;-86
2024/01/12 13:48:37;;;;;;;10.82;2.88;;;;;;;;;;6294598;22;20339;-85
2024/01/12 13:51:04;;;;;;;15.18;3.50;;;;;;;;;;6275739;22;20022;-86
2024/01/12 13:53:31;;;;;;;14.88;2.92;;;;;;;;;;6301571;22;20108;-86
2024/01/12 13:55:58;;;;;;;11.25;2.53;;;;;;;;;;6276359;22;20152;-87
2024/01/12 13:58:26;;;;;;;10.07;2.63;;;;;;;;;;6330324;22;20063;-87
2024/01/12 14:00:52;;;;;;;13.93;2.63;;;;;;;;;;6248610;22;20015;-86
2024/01/12 14:03:19;;;;;;;10.63;2.80;;;;;;;;;;6278160;22;20089;-86
2024/01/12 14:05:47;;;;;;;16.83;2.47;;;;;;;;;;6274769;22;20014;-86
2024/01/12 14:08:15;;;;;;;10.05;2.17;;;;;;;;;;6276792;22;20018;-87
2024/01/12 14:10:42;;;;;;;11.50;2.77;;;;;;;;;;6250042;22;20018;-87
2024/01/12 14:13:12;;;;;;;15.13;2.40;;;;;;;;;;6277485;22;20019;-87
2024/01/12 14:15:40;;;;;;;11.93;3.08;;;;;;;;;;6251390;22;20019;-87
2024/01/12 14:18:06;;;;;;;17.23;3.03;;;;;;;;;;6293916;22;20011;-87
2024/01/12 14:20:35;;;;;;;11.90;2.63;;;;;;;;;;6324886;22;20025;-87
2024/01/12 14:23:01;;;;;;;10.52;2.63;;;;;;;;;;6304703;22;20335;-87
2024/01/12 14:25:28;;;;;;;7.28;2.42;;;;;;;;;;6303404;22;20447;-86
2024/01/12 14:27:54;;;;;;;15.90;2.13;;;;;;;;;;6303236;22;20019;-87
2024/01/12 14:30:21;;;;;;;12.02;3.42;;;;;;;;;;6302182;22;20051;-87
2024/01/12 14:32:48;;;;;;;13.45;3.08;;;;;;;;;;6276125;22;20053;-87
2024/01/12 14:35:16;;;;;;;12.93;2.90;;;;;;;;;;6277675;22;20019;-86
2024/01/12 16:05:06;;;;;;;11.35;2.15;;;;;;;;;;6273574;22;20026;-87
2024/01/12 16:40:55;;;;;;;14.82;2.90;;;;;;;;;;6291583;22;20022;-86
2024/01/12 16:44:15;;;;;;;8.50;3.25;;;;;;;;;;6262185;22;20422;-85
2024/01/12 16:50:40;;;;;;;7.57;5.07;;;;;;;;;;6310220;22;20042;-86
2024/01/12 16:55:59;;;;;;;9.00;3.13;;;;;;;;;;6260205;22;20113;-85
2024/01/12 16:58:52;;;;;;;9.48;2.92;;;;;;;;;;6295817;22;20053;-85
2024/01/12 17:02:37;;;;;;;6.70;2.33;;;;;;;;;;6272940;22;20021;-85
2024/01/12 17:12:03;;;;;;;4.35;2.92;;;;;;;;;;6238498;23;20096;-87
2024/01/12 17:30:51;;;;;;;;;;;;;;;;;;;;;
2024/01/12 17:44:17;;;;;;;;;;;;;;;;;;;;;
2024/01/12 18:42:12;;;;;;;6.38;3.65;;;;;;;;;;6316497;22;20019;-85
2024/01/12 18:49:16;;;;;;;6.95;3.50;;;;;;;;;;6266456;22;20027;-86
2024/01/12 19:24:53;;;;;;;;;;;;;;;;;;;;;
2024/01/12 19:28:15;;;;;;;;;;;;;;;;;;;;;
2024/01/12 19:42:00;;;;;;;;;;;;;;;;;;;;;
2024/01/12 19:48:18;;;;;;;;;;;;;;;;;;;;;
2024/01/12 20:02:24;;;;;;;;;;;;;;;;;;;;;
2024/01/12 20:05:22;;;;;;;;;;;;;;;;;;;;;
2024/01/12 20:08:35;;;;;;;8.35;4.85;;;;;;;;;;6139306;23;20013;-85
2024/01/12 20:15:16;;;;;;;;;;;;;;;;;;;;;
2024/01/12 20:30:56;;;;;;;11.00;5.13;;;;;;;;;;6038824;23;20026;-86
2024/01/12 20:36:36;;;;;;;8.07;5.00;;;;;;;;;;6063179;23;20031;-86
2024/01/12 20:39:18;;;;;;;12.02;5.55;;;;;;;;;;6039342;23;20071;-86
2024/01/12 20:41:53;;;;;;;;;;;;;;;;;;6011644;23;20117;-86
2024/01/12 20:44:51;;;;;;;10.65;5.95;;;;;;;;;;6062312;23;20306;-85
2024/01/12 20:47:49;;;;;;;11.02;6.68;;;;;;;;;;6034386;23;20126;-85
2024/01/12 20:50:54;;;;;;;;;;;;;;;;;;;;;
2024/01/12 20:54:04;;;;;;;10.00;5.70;;;;;;;;;;6059897;23;20026;-86
2024/01/12 20:56:52;;;;;;;7.57;5.10;;;;;;;;;;6109703;23;20061;-86
2024/01/12 21:03:52;;;;;;;;;;;;;;;;;;;;;
2024/01/12 21:10:15;;;;;;;8.93;4.63;;;;;;;;;;6191356;23;20433;-86
2024/01/12 21:13:18;;;;;;;6.68;4.35;;;;;;;;;;6149452;23;20315;-85
2024/01/12 21:15:54;;;;;;;9.50;4.70;;;;;;;;;;6101257;23;20032;-85
2024/01/12 21:19:40;;;;;;;6.15;4.25;;;;;;;;;;6120603;23;20051;-85
2024/01/12 21:22:44;;;;;;;10.23;4.75;;;;;;;;;;6111518;23;20022;-85
2024/01/12 21:26:33;;;;;;;8.02;4.47;;;;;;;;;;6142245;23;20315;-85
2024/01/12 21:28:54;;;;;;;6.53;3.80;;;;;;;;;;6242803;22;20862;-86
2024/01/12 21:42:30;;;;;;;7.43;4.30;;;;;;;;;;6182110;23;20436;-85
2024/01/12 21:45:52;;;;;;;6.10;3.60;;;;;;;;;;6151601;23;20426;-85
2024/01/12 22:33:43;;;;;;;8.27;3.10;;;;;;;;;;6268149;22;20103;-85
2024/01/12 22:39:32;;;;;;;5.63;2.83;;;;;;;;;;6194753;23;20020;-85
2024/01/12 22:42:55;;;;;;;;;;;;;;;;;;;;;
2024/01/12 22:46:31;;;;;;;;;;;;;;;;;;;;;
2024/01/12 22:50:08;;;;;;;;;;;;;;;;;;;;;
2024/01/12 22:53:28;;;;;;;;;;;;;;;;;;;;;
2024/01/12 22:56:10;;;;;;;;;;;;;;;;;;;;;
2024/01/12 22:59:30;;;;;;;4.60;2.60;;;;;;;;;;5932785;24;20349;-85
2024/01/12 23:02:40;;;;;;;;;;;;;;;;;;;;;